Time;durP1;ratioP1;P1;durP2;ratioP2;P2;SDS_P1;SDS_P2;PMS_P1;PMS_P2;Temp;Humidity;BMP_temperature;BMP_pressure;BME280_temperature;BME280_humidity;BME280_pressure;Samples;Min_cycle;Max_cycle;Signal;HPM_P1;HPM_P2
2024/01/31 00:02:06;;;;;;;;;33.00;27.75;;;;;7.19;100.00;103278.22;5070419;28;45686;-79
2024/01/31 00:04:57;;;;;;;;;25.25;22.75;;;;;6.96;100.00;103258.78;5071716;28;45833;-79
2024/01/31 00:07:22;;;;;;;;;27.50;24.75;;;;;6.99;100.00;103251.78;5079965;28;45301;-79
2024/01/31 00:10:00;;;;;;;;;22.25;20.50;;;;;7.05;100.00;103286.03;5061393;27;45267;-79
2024/01/31 00:12:28;;;;;;;;;35.50;29.75;;;;;7.05;100.00;103277.25;5065564;28;45390;-79
2024/01/31 00:14:57;;;;;;;;;33.75;29.00;;;;;7.17;100.00;103295.75;5078653;28;46601;-79
2024/01/31 00:17:22;;;;;;;;;35.50;31.75;;;;;7.23;100.00;103308.97;5076761;28;45356;-79
2024/01/31 00:19:48;;;;;;;;;38.00;34.50;;;;;7.48;100.00;103320.53;5079355;28;45346;-79
2024/01/31 00:22:20;;;;;;;;;42.00;37.25;;;;;6.96;100.00;103267.56;5061275;28;45467;-79
2024/01/31 00:24:46;;;;;;;;;36.25;31.50;;;;;7.21;100.00;103287.88;5059892;28;46454;-79
2024/01/31 00:27:11;;;;;;;;;44.50;36.00;;;;;7.28;100.00;103329.19;5078060;28;45380;-79
2024/01/31 00:29:42;;;;;;;;;46.75;38.25;;;;;7.32;100.00;103301.13;5078721;28;45378;-79
2024/01/31 00:32:13;;;;;;;;;48.50;38.50;;;;;7.74;100.00;103406.72;5060250;28;45485;-79
2024/01/31 00:34:46;;;;;;;;;47.75;36.25;;;;;7.63;100.00;103376.78;5077852;28;47316;-79
2024/01/31 00:37:23;;;;;;;;;47.25;38.00;;;;;7.19;100.00;103301.91;5078961;28;45378;-78
2024/01/31 00:39:49;;;;;;;;;44.75;38.75;;;;;7.11;100.00;103282.53;5079242;28;45619;-78
2024/01/31 00:42:15;;;;;;;;;49.75;38.75;;;;;6.95;100.00;103233.31;5079069;28;45475;-78
2024/01/31 00:44:55;;;;;;;;;41.75;38.00;;;;;7.76;100.00;103367.19;5077931;28;46379;-78
2024/01/31 00:47:23;;;;;;;;;35.75;32.25;;;;;7.26;100.00;103301.94;5078717;28;45358;-78
2024/01/31 00:50:15;;;;;;;;;41.00;37.50;;;;;6.70;100.00;103214.75;5079123;28;45454;-78
2024/01/31 00:52:43;;;;;;;;;45.25;35.00;;;;;6.87;100.00;103219.25;5081198;28;45233;-78
2024/01/31 00:55:09;;;;;;;;;42.50;34.25;;;;;7.17;100.00;103288.72;5056804;28;47169;-78
2024/01/31 00:57:56;;;;;;;;;;;;;;;;;;;;;
2024/01/31 01:00:31;;;;;;;;;47.75;36.00;;;;;6.80;100.00;103248.16;5078339;28;68960;-78
2024/01/31 01:03:28;;;;;;;;;49.25;39.00;;;;;7.03;100.00;103284.25;5079068;28;45403;-78
2024/01/31 01:06:24;;;;;;;;;45.75;39.75;;;;;7.12;100.00;103268.53;5078185;28;45687;-78
2024/01/31 01:08:59;;;;;;;;;47.25;41.25;;;;;7.09;100.00;103273.78;5075803;27;45379;-78
2024/01/31 01:12:13;;;;;;;;;42.25;38.00;;;;;7.02;100.00;103275.47;5066761;28;45320;-78
2024/01/31 01:14:38;;;;;;;;;46.25;35.25;;;;;6.75;100.00;103260.38;5058978;28;45491;-79
2024/01/31 01:17:25;;;;;;;;;47.75;38.75;;;;;6.70;100.00;103246.31;5066093;28;45821;-79
2024/01/31 01:19:56;;;;;;;;;48.50;41.25;;;;;6.91;100.00;103257.84;5077723;28;45433;-78
2024/01/31 01:22:35;;;;;;;;;49.25;38.75;;;;;6.90;100.00;103290.31;5056121;28;45450;-78
2024/01/31 01:25:44;;;;;;;;;45.50;39.25;;;;;7.45;100.00;103352.97;5064137;28;45480;-78
2024/01/31 01:28:13;;;;;;;;;48.25;40.00;;;;;6.64;100.00;103240.13;5060819;28;45556;-78
2024/01/31 01:30:51;;;;;;;;;47.00;41.75;;;;;7.44;100.00;103351.22;5082538;27;45333;-78
2024/01/31 01:33:25;;;;;;;;;48.00;40.75;;;;;6.72;100.00;103236.69;5077966;28;45239;-78
2024/01/31 01:35:51;;;;;;;;;41.25;37.00;;;;;6.93;100.00;103285.06;5078468;28;45619;-79
2024/01/31 01:38:27;;;;;;;;;51.00;42.75;;;;;6.88;100.00;103249.94;5065058;28;45286;-77
2024/01/31 01:41:26;;;;;;;;;42.75;38.00;;;;;6.55;100.00;103234.78;5078410;28;45338;-78
2024/01/31 01:43:52;;;;;;;;;55.00;42.25;;;;;6.67;100.00;103250.66;5084195;27;45305;-78
2024/01/31 01:46:45;;;;;;;;;52.75;38.75;;;;;6.45;100.00;103197.00;5080800;27;45324;-78
2024/01/31 01:49:47;;;;;;;;;50.25;39.00;;;;;7.41;100.00;103352.94;5079725;28;46465;-78
2024/01/31 01:52:57;;;;;;;;;;;;;;;;;;;;;
2024/01/31 01:55:28;;;;;;;;;42.50;37.25;;;;;7.09;100.00;103319.41;5079332;28;67479;-78
2024/01/31 01:58:04;;;;;;;;;36.50;35.50;;;;;6.53;100.00;103213.75;5078166;28;45456;-78
2024/01/31 02:00:43;;;;;;;;;40.75;36.00;;;;;6.62;100.00;103226.97;5076288;28;47955;-79
2024/01/31 02:04:03;;;;;;;;;43.25;36.75;;;;;6.89;100.00;103263.13;5062339;28;45376;-79
2024/01/31 02:06:29;;;;;;;;;40.25;32.00;;;;;6.55;100.00;103237.41;5040463;28;45346;-78
2024/01/31 02:09:04;;;;;;;;;35.25;33.25;;;;;6.84;100.00;103274.47;5044890;28;45631;-79
2024/01/31 02:12:21;;;;;;;;;33.25;28.50;;;;;7.43;100.00;103351.22;5079079;28;46843;-78
2024/01/31 02:18:07;;;;;;;;;31.00;30.00;;;;;7.10;100.00;103283.44;5076477;28;45581;-78
2024/01/31 02:23:42;;;;;;;;;31.00;27.75;;;;;7.06;100.00;103294.81;5078757;28;45712;-78
2024/01/31 02:26:15;;;;;;;;;37.25;35.00;;;;;6.32;100.00;103187.28;5063150;28;45478;-78
2024/01/31 02:29:07;;;;;;;;;29.00;29.00;;;;;7.34;100.00;103349.38;5061108;28;45613;-78
2024/01/31 02:31:40;;;;;;;;;34.25;31.25;;;;;6.39;100.00;103206.59;5054843;28;45692;-78
2024/01/31 02:34:59;;;;;;;;;31.50;29.00;;;;;6.53;100.00;103210.22;5083891;27;48320;-78
2024/01/31 02:44:28;;;;;;;;;28.00;26.50;;;;;6.91;100.00;103297.31;5047834;28;45745;-78
2024/01/31 02:47:28;;;;;;;;;32.75;23.50;;;;;6.39;100.00;103225.00;5079925;27;46312;-78
2024/01/31 02:50:07;;;;;;;;;26.75;24.00;;;;;7.21;100.00;103371.22;5076859;28;45388;-78
2024/01/31 02:52:57;;;;;;;;;25.00;22.75;;;;;7.19;100.00;103363.34;5064647;28;45434;-78
2024/01/31 02:55:45;;;;;;;;;28.75;24.25;;;;;6.63;100.00;103293.56;5057153;28;45752;-78
2024/01/31 02:58:14;;;;;;;;;24.25;23.50;;;;;6.32;100.00;103250.34;5038918;28;45401;-78
2024/01/31 03:01:07;;;;;;;;;24.75;23.75;;;;;6.41;100.00;103254.81;5027879;28;45453;-78
2024/01/31 03:10:47;;;;;;;;;;;;;;;;;;;;;
2024/01/31 03:13:30;;;;;;;;;23.75;21.50;;;;;6.88;100.00;103331.47;5033361;28;73220;-78
2024/01/31 03:16:16;;;;;;;;;16.50;15.50;;;;;6.32;100.00;103245.09;5058163;28;45285;-78
2024/01/31 03:18:44;;;;;;;;;24.25;19.75;;;;;6.57;100.00;103281.28;5072120;28;45643;-79
2024/01/31 03:21:42;;;;;;;;;24.75;22.50;;;;;6.40;100.00;103259.19;5077411;28;45743;-78
2024/01/31 03:27:48;;;;;;;;;23.25;20.25;;;;;6.36;100.00;103217.97;5074087;27;45646;-78
2024/01/31 03:30:16;;;;;;;;;27.25;20.75;;;;;6.52;100.00;103246.16;5079494;27;45484;-78
2024/01/31 03:32:56;;;;;;;;;22.00;18.75;;;;;6.98;100.00;103309.63;5077189;27;45402;-78
2024/01/31 03:35:26;;;;;;;;;23.00;19.50;;;;;7.00;100.00;103307.91;5072032;28;45580;-78
2024/01/31 03:38:12;;;;;;;;;24.00;21.50;;;;;6.52;100.00;103226.88;5079591;28;45493;-79
2024/01/31 03:40:40;;;;;;;;;22.25;18.25;;;;;6.49;100.00;103225.09;5077405;27;45959;-79
2024/01/31 03:43:38;;;;;;;;;18.00;15.67;;;;;6.76;100.00;103279.66;5089334;27;45437;-79
2024/01/31 03:46:09;;;;;;;;;28.75;19.25;;;;;6.50;100.00;103228.63;5079850;28;45490;-80
2024/01/31 03:48:48;;;;;;;;;25.25;19.75;;;;;6.75;100.00;103277.91;5081265;28;45570;-79
2024/01/31 03:51:24;;;;;;;;;18.75;15.75;;;;;6.65;100.00;103260.28;5073871;27;45228;-78
2024/01/31 03:53:55;;;;;;;;;21.00;18.00;;;;;7.15;100.00;103331.69;5073689;27;46815;-79
2024/01/31 03:56:21;;;;;;;;;21.75;21.50;;;;;7.08;100.00;103337.78;5072303;28;45555;-80
2024/01/31 03:59:28;;;;;;;;;21.00;19.00;;;;;7.48;100.00;103381.97;5095036;27;45384;-80
2024/01/31 04:02:04;;;;;;;;;18.25;15.50;;;;;6.62;100.00;103229.59;5075534;28;45324;-79
2024/01/31 04:07:25;;;;;;;;;20.50;20.00;;;;;7.56;100.00;103387.28;5079706;28;45457;-79
2024/01/31 04:13:42;;;;;;;;;25.50;21.25;;;;;7.57;100.00;103418.88;5078193;27;45691;-78
2024/01/31 04:19:26;;;;;;;;;22.75;21.25;;;;;7.33;100.00;103373.94;5069153;28;45335;-79
2024/01/31 04:22:09;;;;;;;;;18.75;18.75;;;;;6.72;100.00;103233.16;5056096;28;45377;-79
2024/01/31 04:24:55;;;;;;;;;21.00;21.00;;;;;7.65;100.00;103434.75;5073232;28;45385;-79
2024/01/31 04:27:23;;;;;;;;;25.33;19.00;;;;;6.75;100.00;103228.81;5052735;28;45649;-80
2024/01/31 04:33:13;;;;;;;;;25.00;21.00;;;;;7.68;100.00;103411.06;5057000;28;45510;-80
2024/01/31 04:35:38;;;;;;;;;19.00;19.00;;;;;7.18;100.00;103294.88;5061702;28;45550;-80
2024/01/31 04:38:04;;;;;;;;;18.50;18.50;;;;;7.65;100.00;103376.81;5072840;28;46774;-80
2024/01/31 04:40:37;;;;;;;;;25.50;16.00;;;;;7.43;100.00;103345.94;5063170;28;45341;-80
2024/01/31 04:43:05;;;;;;;;;18.33;17.00;;;;;7.19;100.00;103308.06;5063386;28;45434;-79
2024/01/31 04:45:31;;;;;;;;;22.50;19.50;;;;;7.10;100.00;103299.22;5078357;28;45522;-79
2024/01/31 04:48:27;;;;;;;;;18.75;17.50;;;;;6.86;100.00;103233.28;5057494;28;45792;-79
2024/01/31 04:57:47;;;;;;;;;16.50;16.50;;;;;6.82;100.00;103203.44;4953015;28;45715;-79
2024/01/31 05:00:39;;;;;;;;;14.75;14.25;;;;;6.76;100.00;103237.59;5052794;28;47065;-80
2024/01/31 05:03:04;;;;;;;;;19.00;15.25;;;;;7.00;100.00;103255.31;5065345;28;45526;-79
2024/01/31 05:05:41;;;;;;;;;20.50;17.50;;;;;6.87;100.00;103219.25;5060955;28;45408;-79
2024/01/31 05:08:22;;;;;;;;;16.00;15.00;;;;;6.94;100.00;103235.06;5059960;28;45535;-79
2024/01/31 05:11:02;;;;;;;;;18.33;15.67;;;;;6.93;100.00;103242.97;5077351;28;46765;-80
2024/01/31 05:14:39;;;;;;;;;20.00;14.33;;;;;7.73;100.00;103344.34;5070011;27;45548;-79
2024/01/31 05:20:37;;;;;;;;;15.25;14.25;;;;;7.21;100.00;103258.94;5077607;28;45280;-80
2024/01/31 05:27:03;;;;;;;;;;;;;;;;;;;;;
2024/01/31 05:29:43;;;;;;;;;14.00;12.67;;;;;7.64;100.00;103362.75;5076316;28;67771;-79
2024/01/31 05:32:21;;;;;;;;;13.67;13.00;;;;;6.83;100.00;103213.09;5059559;28;45958;-79
2024/01/31 05:38:20;;;;;;;;;;;;;;;;;;;;;
2024/01/31 05:41:03;;;;;;;;;14.33;14.33;;;;;6.73;100.00;103192.88;5083218;28;67507;-79
2024/01/31 05:43:40;;;;;;;;;15.00;14.00;;;;;6.97;100.00;103234.25;5085501;28;45354;-80
2024/01/31 05:46:32;;;;;;;;;13.00;13.00;;;;;6.67;100.00;103201.59;5085180;28;45716;-77
2024/01/31 05:52:19;;;;;;;;;18.67;16.00;;;;;7.50;100.00;103322.28;5062893;28;45289;-78
2024/01/31 05:54:49;;;;;;;;;14.00;12.00;;;;;7.31;100.00;103291.47;5081809;28;45266;-78
2024/01/31 05:57:43;;;;;;;;;13.00;13.00;;;;;6.50;100.00;103166.41;5080160;28;45615;-77
2024/01/31 06:00:41;;;;;;;;;12.67;11.33;;;;;6.59;100.00;103171.72;5081109;28;45427;-78
2024/01/31 06:03:52;;;;;;;;;14.33;13.00;;;;;7.46;100.00;103331.03;5078504;28;45458;-77
2024/01/31 06:06:30;;;;;;;;;;;;;;;;;;;;;
2024/01/31 06:08:58;;;;;;;;;18.33;14.33;;;;;6.90;100.00;103235.06;5072101;28;73333;-77
2024/01/31 06:11:29;;;;;;;;;16.00;13.33;;;;;6.85;100.00;103260.44;5076916;28;45392;-77
2024/01/31 06:14:08;;;;;;;;;11.67;9.33;;;;;6.57;100.00;103201.50;5081022;27;45461;-78
2024/01/31 06:16:35;;;;;;;;;11.33;11.33;;;;;7.30;100.00;103303.72;5073123;28;45657;-80
2024/01/31 06:19:06;;;;;;;;;8.33;8.33;;;;;6.37;100.00;103200.47;5062456;28;46782;-77
2024/01/31 06:21:37;;;;;;;;;13.00;9.00;;;;;7.23;100.00;103314.22;5073003;28;45374;-77
2024/01/31 06:24:45;;;;;;;;;13.00;10.00;;;;;6.54;100.00;103202.38;5062276;28;45471;-80
2024/01/31 06:27:26;;;;;;;;;10.33;10.33;;;;;6.24;100.00;103160.94;5068371;28;45373;-79
2024/01/31 06:30:09;;;;;;;;;13.00;9.00;;;;;6.08;100.00;103140.66;5077183;28;45802;-79
2024/01/31 06:39:50;;;;;;;;;9.00;7.67;;;;;7.00;100.00;103307.91;5060285;28;45389;-80
2024/01/31 06:43:01;;;;;;;;;13.33;13.33;;;;;6.05;100.00;103181.78;5064201;28;45601;-80
2024/01/31 06:45:45;;;;;;;;;;;;;;;;;;;;;
2024/01/31 06:48:16;;;;;;;;;8.33;7.67;;;;;6.84;100.00;103327.94;5079133;28;68610;-78
2024/01/31 06:50:41;;;;;;;;;13.00;9.00;;;;;6.21;100.00;103255.53;5074868;28;46369;-77
2024/01/31 06:53:07;;;;;;;;;11.33;9.33;;;;;6.22;100.00;103245.88;5079569;28;46760;-77
2024/01/31 06:55:32;;;;;;;;;12.67;8.00;;;;;6.25;100.00;103259.91;5063000;28;45276;-78
2024/01/31 06:57:57;;;;;;;;;12.33;10.33;;;;;6.00;100.00;103236.91;5081353;28;45322;-78
2024/01/31 07:00:23;;;;;;;;;8.00;8.00;;;;;6.34;100.00;103292.41;5080708;28;45503;-79
2024/01/31 07:02:53;;;;;;;;;9.67;9.00;;;;;5.76;100.00;103220.81;5081347;28;45545;-78
2024/01/31 07:05:23;;;;;;;;;9.00;6.00;;;;;5.43;100.00;103179.31;5080948;28;45340;-78
2024/01/31 07:07:50;;;;;;;;;9.00;9.00;;;;;5.84;100.00;103257.69;5081404;28;45352;-78
2024/01/31 07:10:41;;;;;;;;;12.00;9.33;;;;;5.23;100.00;103160.69;5082207;28;45295;-78
2024/01/31 07:13:06;;;;;;;;;10.33;8.67;;;;;5.29;100.00;103170.41;5075241;28;45752;-78
2024/01/31 07:15:32;;;;;;;;;9.00;9.00;;;;;6.20;100.00;103323.81;5075194;28;45238;-79
2024/01/31 07:18:06;;;;;;;;;13.67;9.00;;;;;5.61;100.00;103255.66;5081076;28;45494;-78
2024/01/31 07:20:32;;;;;;;;;11.33;5.00;;;;;5.92;100.00;103313.84;5072937;28;45504;-79
2024/01/31 07:22:57;;;;;;;;;13.67;11.33;;;;;5.60;100.00;103261.78;5060033;28;45415;-79
2024/01/31 07:25:22;;;;;;;;;14.75;9.75;;;;;5.72;100.00;103306.56;5075884;28;45380;-79
2024/01/31 07:27:48;;;;;;;;;14.25;11.00;;;;;5.42;100.00;103250.16;5063043;28;45431;-79
2024/01/31 07:30:13;;;;;;;;;11.50;11.50;;;;;5.56;100.00;103288.84;5077331;28;45525;-79
2024/01/31 07:32:39;;;;;;;;;9.75;9.50;;;;;5.79;100.00;103334.66;5081629;28;46303;-79
2024/01/31 07:35:07;;;;;;;;;10.50;10.50;;;;;5.92;100.00;103355.88;5055889;28;45473;-79
2024/01/31 07:37:34;;;;;;;;;13.00;13.00;;;;;5.71;100.00;103332.78;5079941;28;45335;-79
2024/01/31 07:40:00;;;;;;;;;9.00;6.33;;;;;5.81;100.00;103357.44;5076421;28;45509;-79
2024/01/31 07:42:26;;;;;;;;;9.33;8.00;;;;;5.62;100.00;103325.69;5074522;28;56996;-79
2024/01/31 07:44:51;;;;;;;;;12.25;12.25;;;;;5.67;100.00;103334.50;5080370;28;45375;-79
2024/01/31 07:47:17;;;;;;;;;11.25;11.25;;;;;5.67;100.00;103323.09;5076443;28;45398;-79
2024/01/31 07:49:42;;;;;;;;;13.00;9.25;;;;;5.66;100.00;103331.88;5077633;28;45552;-79
2024/01/31 07:52:08;;;;;;;;;12.00;10.50;;;;;5.72;100.00;103330.22;5071709;28;46418;-79
2024/01/31 07:54:33;;;;;;;;;14.00;12.00;;;;;5.83;100.00;103335.56;5080945;28;45352;-79
2024/01/31 07:56:59;;;;;;;;;12.00;12.00;;;;;5.73;100.00;103310.94;5081022;28;45337;-79
2024/01/31 07:59:25;;;;;;;;;12.00;12.00;;;;;5.56;100.00;103285.34;5057994;28;45397;-78
2024/01/31 08:01:51;;;;;;;;;24.00;15.00;;;;;5.89;100.00;103329.56;5065702;28;45424;-78
2024/01/31 08:04:16;;;;;;;;;14.33;13.00;;;;;5.89;100.00;103335.69;5067904;28;45320;-79
2024/01/31 08:06:42;;;;;;;;;13.00;12.25;;;;;5.88;100.00;103330.44;5078728;28;49425;-79
2024/01/31 08:09:10;;;;;;;;;13.25;12.00;;;;;5.87;100.00;103333.91;5085979;28;45325;-79
2024/01/31 08:11:42;;;;;;;;;20.00;17.25;;;;;5.98;100.00;103342.81;5088254;27;45518;-80
2024/01/31 08:14:08;;;;;;;;;20.00;18.25;;;;;5.98;100.00;103333.19;5100707;27;45525;-80
2024/01/31 08:16:33;;;;;;;;;27.25;23.00;;;;;5.98;100.00;103330.56;5084095;27;45354;-79
2024/01/31 08:18:58;;;;;;;;;25.75;20.50;;;;;5.99;100.00;103340.19;5095898;27;48530;-79
2024/01/31 08:21:24;;;;;;;;;24.75;19.25;;;;;5.89;100.00;103311.19;5073792;27;46995;-79
2024/01/31 08:23:50;;;;;;;;;24.75;19.00;;;;;5.91;100.00;103314.69;5081063;28;45475;-79
2024/01/31 08:26:17;;;;;;;;;23.50;20.25;;;;;5.93;100.00;103310.34;5091433;27;45400;-78
2024/01/31 08:28:42;;;;;;;;;26.00;21.25;;;;;5.95;100.00;103311.25;5098937;27;45436;-79
2024/01/31 08:31:08;;;;;;;;;29.00;25.25;;;;;6.08;100.00;103342.94;5096729;27;45210;-78
2024/01/31 08:33:33;;;;;;;;;29.75;25.00;;;;;6.04;100.00;103330.63;5089680;27;48498;-79
2024/01/31 08:35:58;;;;;;;;;31.50;26.00;;;;;6.08;100.00;103339.44;5080271;27;45306;-78
2024/01/31 08:38:24;;;;;;;;;37.75;30.25;;;;;6.15;100.00;103343.91;5075864;28;50524;-79
2024/01/31 08:40:49;;;;;;;;;27.25;24.50;;;;;6.11;100.00;103332.47;5085896;27;45432;-79
2024/01/31 08:43:14;;;;;;;;;27.25;22.75;;;;;6.28;100.00;103346.66;5087361;27;45411;-79
2024/01/31 08:45:40;;;;;;;;;31.25;24.50;;;;;6.34;100.00;103332.72;5084490;27;45277;-79
2024/01/31 08:48:05;;;;;;;;;26.75;23.50;;;;;6.25;100.00;103306.31;5089894;27;45609;-79
2024/01/31 08:50:31;;;;;;;;;32.50;25.75;;;;;6.48;100.00;103328.47;5073306;27;47158;-78
2024/01/31 08:52:56;;;;;;;;;31.50;27.00;;;;;6.66;100.00;103343.56;5090636;27;45929;-79
2024/01/31 08:55:21;;;;;;;;;36.75;28.25;;;;;6.66;100.00;103336.56;5071336;27;45534;-79
2024/01/31 08:57:47;;;;;;;;;31.75;24.50;;;;;7.00;100.00;103363.16;5087609;27;45487;-79
2024/01/31 09:00:13;;;;;;;;;28.50;24.50;;;;;6.92;100.00;103333.28;5088802;27;46479;-79
2024/01/31 09:02:39;;;;;;;;;27.75;23.00;;;;;7.08;100.00;103348.31;5083921;27;45395;-79
2024/01/31 09:05:04;;;;;;;;;29.25;26.50;;;;;7.30;100.00;103374.81;5073466;27;45448;-79
2024/01/31 09:07:30;;;;;;;;;30.75;23.25;;;;;7.36;100.00;103371.34;5092483;27;45461;-79
2024/01/31 09:09:55;;;;;;;;;33.75;28.50;;;;;7.51;100.00;103378.47;5093957;27;45623;-79
2024/01/31 09:12:20;;;;;;;;;27.75;25.25;;;;;7.63;100.00;103376.78;5072072;27;45449;-79
2024/01/31 09:14:46;;;;;;;;;30.50;24.75;;;;;7.56;100.00;103337.25;5062323;27;56880;-78
2024/01/31 09:17:11;;;;;;;;;32.25;28.50;;;;;7.77;100.00;103359.31;5091519;27;45421;-78
2024/01/31 09:19:36;;;;;;;;;39.25;26.00;;;;;7.73;100.00;103322.41;5083592;27;45540;-78
2024/01/31 09:22:02;;;;;;;;;26.50;24.25;;;;;8.02;100.00;103356.78;5076997;27;45699;-78
2024/01/31 09:24:27;;;;;;;;;36.75;30.75;;;;;8.02;100.00;103333.94;5057084;28;45371;-78
2024/01/31 09:26:53;;;;;;;;;36.50;28.50;;;;;8.02;100.00;103319.88;5077847;27;45445;-78
2024/01/31 09:29:18;;;;;;;;;36.50;32.50;;;;;8.21;100.00;103329.63;5060310;28;46387;-79
2024/01/31 09:31:47;;;;;;;;;29.25;27.75;;;;;8.44;100.00;103354.34;5069436;27;45422;-78
2024/01/31 09:34:12;;;;;;;;;36.25;30.50;;;;;8.49;100.00;103344.66;5079582;27;45498;-78
2024/01/31 09:36:37;;;;;;;;;33.00;30.75;;;;;8.51;100.00;103328.88;5080289;27;45524;-79
2024/01/31 09:39:03;;;;;;;;;26.75;26.00;;;;;8.66;100.00;103320.97;5076899;27;49009;-79
2024/01/31 09:41:29;;;;;;;;;22.67;19.67;;;;;8.59;100.00;103296.34;5080160;27;45481;-77
2024/01/31 09:43:55;;;;;;;;;7.33;7.33;;;;;8.87;100.00;103320.97;5076639;27;45688;-77
2024/01/31 09:46:22;;;;;;;;;9.33;9.00;;;;;9.01;100.00;103320.97;5077314;27;45550;-77
2024/01/31 09:48:48;;;;;;;;;9.33;8.67;;;;;9.15;100.00;103324.47;5076786;28;45300;-78
2024/01/31 09:51:16;;;;;;;;;12.00;9.00;;;;;9.33;100.00;103319.16;5071697;27;45285;-77
2024/01/31 09:53:48;;;;;;;;;9.00;7.67;;;;;9.35;100.00;103297.19;5077442;27;45509;-77
2024/01/31 09:56:13;;;;;;;;;9.33;8.00;;;;;9.57;100.00;103313.84;5076406;27;45397;-77
2024/01/31 09:58:39;;;;;;;;;12.33;11.00;;;;;9.71;100.00;103322.59;5073880;27;45435;-78
2024/01/31 10:01:06;;;;;;;;;10.00;10.00;;;;;9.76;100.00;103314.63;5047658;28;45242;-77
2024/01/31 10:03:31;;;;;;;;;8.67;5.67;;;;;9.66;100.00;103275.91;5075512;27;45416;-77
2024/01/31 10:05:57;;;;;;;;;13.67;7.67;;;;;9.90;100.00;103296.97;5058516;28;45424;-78
2024/01/31 10:08:22;;;;;;;;;10.00;9.67;;;;;10.06;100.00;103296.00;5077218;27;45389;-78
2024/01/31 10:10:48;;;;;;;;;14.00;11.33;;;;;10.12;100.00;103281.88;5077527;27;45412;-77
2024/01/31 10:13:13;;;;;;;;;9.67;8.00;;;;;10.11;100.00;103267.75;5078178;27;45626;-78
2024/01/31 10:15:39;;;;;;;;;12.33;11.67;;;;;10.05;100.00;103259.00;5051881;28;45404;-77
2024/01/31 10:18:04;;;;;;;;;10.33;9.00;;;;;10.26;100.00;103291.53;5078350;28;50535;-77
2024/01/31 10:20:30;;;;;;;;;13.67;11.00;;;;;10.18;100.00;103261.59;5067601;28;45596;-77
2024/01/31 10:22:55;;;;;;;;;12.33;11.00;;;;;10.26;100.00;103270.38;5076094;28;45391;-78
2024/01/31 10:25:20;;;;;;;;;15.00;9.67;;;;;10.37;100.00;103278.25;5059714;28;45254;-77
2024/01/31 10:27:47;;;;;;;;;10.00;9.00;;;;;10.35;100.00;103274.72;5073351;28;45487;-78
2024/01/31 10:30:13;;;;;;;;;8.00;8.00;;;;;10.48;100.00;103280.78;5077909;28;45307;-77
2024/01/31 10:32:40;;;;;;;;;11.00;11.00;;;;;10.52;100.00;103279.88;5076955;28;45348;-78
2024/01/31 10:35:07;;;;;;;;;13.67;10.33;;;;;10.52;100.00;103272.81;5073460;28;45310;-78
2024/01/31 10:37:33;;;;;;;;;12.00;12.00;;;;;10.55;100.00;103271.91;5076348;28;46903;-78
2024/01/31 10:40:04;;;;;;;;;19.33;15.00;;;;;10.38;100.00;103240.28;5076190;28;45527;-78
2024/01/31 10:42:29;;;;;;;;;20.33;16.33;;;;;10.60;100.00;103278.06;5080390;28;45551;-79
2024/01/31 10:44:55;;;;;;;;;15.67;12.00;;;;;10.61;100.00;103271.88;5074634;28;45325;-81
2024/01/31 10:47:26;;;;;;;;;14.67;12.33;;;;;10.55;100.00;103259.56;5077536;28;45406;-81
2024/01/31 10:49:54;;;;;;;;;10.67;10.00;;;;;10.55;100.00;103256.03;5075193;28;45431;-80
2024/01/31 10:52:24;;;;;;;;;15.00;12.67;;;;;10.58;100.00;103251.59;5078722;28;45361;-79
2024/01/31 10:54:58;;;;;;;;;21.67;12.33;;;;;10.48;100.00;103223.47;5061075;28;45338;-77
2024/01/31 10:57:25;;;;;;;;;12.67;12.67;;;;;10.67;100.00;103242.69;5052779;28;48103;-77
2024/01/31 10:59:50;;;;;;;;;12.67;12.67;;;;;10.79;100.00;103258.50;5080255;28;45479;-77
2024/01/31 11:02:16;;;;;;;;;13.00;12.00;;;;;10.53;100.00;103205.78;5082242;28;45504;-77
2024/01/31 11:04:45;;;;;;;;;13.33;13.33;;;;;10.89;100.00;103257.53;5081011;28;45530;-77
2024/01/31 11:07:19;;;;;;;;;17.00;13.33;;;;;10.91;100.00;103251.31;5079228;28;45394;-77
2024/01/31 11:09:45;;;;;;;;;16.00;14.00;;;;;10.96;100.00;103259.22;5054348;28;45378;-77
2024/01/31 11:12:13;;;;;;;;;14.67;13.00;;;;;10.79;100.00;103240.84;5082963;27;45225;-77
2024/01/31 11:14:41;;;;;;;;;14.00;14.00;;;;;10.84;100.00;103241.66;5079620;27;45422;-77
2024/01/31 11:17:12;;;;;;;;;12.67;11.00;;;;;10.93;100.00;103262.75;5072796;27;45426;-78
2024/01/31 11:19:51;;;;;;;;;14.33;12.67;;;;;11.01;100.00;103267.09;5078423;27;45517;-77
2024/01/31 11:22:17;;;;;;;;;17.00;15.00;;;;;11.04;100.00;103261.78;5079281;27;45379;-78
2024/01/31 11:24:47;;;;;;;;;16.33;10.67;;;;;10.93;100.00;103238.94;5058771;28;45506;-78
2024/01/31 11:27:17;;;;;;;;;13.33;11.00;;;;;11.05;100.00;103253.84;5065007;27;47559;-78
2024/01/31 11:29:46;;;;;;;;;14.67;13.00;;;;;10.90;100.00;103253.97;5060678;27;45769;-78
2024/01/31 11:32:29;;;;;;;;;19.67;16.33;;;;;10.53;100.00;103166.09;5078149;28;45507;-78
2024/01/31 11:35:05;;;;;;;;;15.00;14.33;;;;;11.09;100.00;103257.34;5079155;28;45396;-77
2024/01/31 11:37:31;;;;;;;;;14.67;11.67;;;;;10.87;100.00;103223.09;5079861;28;45300;-79
2024/01/31 11:40:06;;;;;;;;;13.33;11.00;;;;;10.61;100.00;103176.59;5077897;27;45397;-81
2024/01/31 11:42:32;;;;;;;;;16.00;12.33;;;;;10.37;100.00;103125.66;5061349;28;45456;-79
2024/01/31 11:45:01;;;;;;;;;13.33;10.67;;;;;10.44;100.00;103137.94;5057341;28;45868;-78
2024/01/31 11:47:27;;;;;;;;;12.00;12.00;;;;;10.43;100.00;103108.88;5079820;28;45624;-79
2024/01/31 11:50:04;;;;;;;;;16.67;9.67;;;;;11.40;100.00;103302.03;5072955;27;45473;-79
2024/01/31 11:52:37;;;;;;;;;11.67;9.00;;;;;10.57;100.00;103136.06;5056663;28;45327;-78
2024/01/31 11:55:11;;;;;;;;;17.00;13.67;;;;;10.38;100.00;103142.41;5074700;27;45885;-79
2024/01/31 11:57:39;;;;;;;;;11.00;11.00;;;;;10.67;100.00;103179.19;5077067;27;47053;-78
2024/01/31 12:00:11;;;;;;;;;10.33;9.00;;;;;10.74;100.00;103172.94;5087048;27;45291;-78
2024/01/31 12:02:37;;;;;;;;;15.67;12.33;;;;;10.76;100.00;103173.81;5080792;27;45417;-79
2024/01/31 12:05:03;;;;;;;;;11.33;10.67;;;;;10.85;100.00;103182.53;5071571;27;45673;-79
2024/01/31 12:07:29;;;;;;;;;15.33;11.33;;;;;11.13;100.00;103245.78;5060341;28;48286;-79
2024/01/31 12:09:54;;;;;;;;;11.33;11.33;;;;;10.93;100.00;103190.38;5081574;27;45321;-79
2024/01/31 12:12:28;;;;;;;;;12.33;9.67;;;;;10.96;100.00;103212.41;5056741;27;45402;-80
2024/01/31 12:15:13;;;;;;;;;15.00;12.33;;;;;11.29;100.00;103255.31;5080674;27;45489;-79
2024/01/31 12:17:49;;;;;;;;;16.00;10.67;;;;;11.24;100.00;103243.91;5097513;27;46266;-80
2024/01/31 12:20:20;;;;;;;;;13.00;11.00;;;;;10.73;100.00;103174.72;5080926;27;45321;-80
2024/01/31 12:22:48;;;;;;;;;14.00;11.00;;;;;10.78;100.00;103202.03;5079335;27;45542;-78
2024/01/31 12:25:17;;;;;;;;;11.00;10.00;;;;;10.45;100.00;103110.59;5098814;27;45506;-78
2024/01/31 12:27:50;;;;;;;;;15.67;13.00;;;;;10.24;100.00;103102.88;5081355;27;45569;-78
2024/01/31 12:30:19;;;;;;;;;8.00;8.00;;;;;11.02;100.00;103232.69;5081044;27;45447;-78
2024/01/31 12:32:44;;;;;;;;;14.00;10.00;;;;;11.04;100.00;103225.59;5081624;27;45412;-78
2024/01/31 12:35:22;;;;;;;;;12.00;11.33;;;;;10.17;100.00;103064.16;5098690;27;45339;-78
2024/01/31 12:38:19;;;;;;;;;19.33;14.00;;;;;10.30;100.00;103096.66;5081887;27;47263;-78
2024/01/31 12:40:51;;;;;;;;;20.33;14.33;;;;;10.77;100.00;103173.78;5071998;27;45572;-78
2024/01/31 12:43:23;;;;;;;;;20.33;15.00;;;;;10.27;100.00;103102.88;5099887;27;45498;-79
2024/01/31 12:45:49;;;;;;;;;18.67;16.33;;;;;10.42;100.00;103117.69;5081781;27;45454;-79
2024/01/31 12:48:17;;;;;;;;;18.33;11.33;;;;;10.77;100.00;103149.97;5079880;27;45963;-79
2024/01/31 12:50:50;;;;;;;;;17.33;14.00;;;;;10.81;100.00;103137.59;5093161;27;45518;-77
2024/01/31 12:53:29;;;;;;;;;16.33;14.00;;;;;11.05;100.00;103125.84;5082368;27;45778;-77